sensor_id;sensor_type;location;lat;lon;timestamp;P1;durP1;ratioP1;P2;durP2;ratioP2
22851;SDS011;11592;45.460;9.240;2023-06-14T00:00:47;30.63;;;19.42;;
22851;SDS011;11592;45.460;9.240;2023-06-14T00:03:15;28.60;;;18.88;;
22851;SDS011;11592;45.460;9.240;2023-06-14T00:05:44;27.95;;;20.13;;
22851;SDS011;11592;45.460;9.240;2023-06-14T00:08:13;27.45;;;19.75;;
22851;SDS011;11592;45.460;9.240;2023-06-14T00:10:40;30.85;;;20.83;;
22851;SDS011;11592;45.460;9.240;2023-06-14T00:13:08;30.95;;;19.25;;
22851;SDS011;11592;45.460;9.240;2023-06-14T00:15:35;30.67;;;20.38;;
22851;SDS011;11592;45.460;9.240;2023-06-14T00:18:03;25.80;;;17.83;;
22851;SDS011;11592;45.460;9.240;2023-06-14T00:20:31;27.08;;;18.92;;
22851;SDS011;11592;45.460;9.240;2023-06-14T00:22:59;32.58;;;19.45;;
22851;SDS011;11592;45.460;9.240;2023-06-14T00:25:27;30.00;;;19.23;;
22851;SDS011;11592;45.460;9.240;2023-06-14T00:27:56;32.90;;;22.30;;
22851;SDS011;11592;45.460;9.240;2023-06-14T00:30:23;30.13;;;21.10;;
22851;SDS011;11592;45.460;9.240;2023-06-14T00:32:51;29.02;;;20.55;;
22851;SDS011;11592;45.460;9.240;2023-06-14T00:35:18;28.38;;;19.85;;
22851;SDS011;11592;45.460;9.240;2023-06-14T00:37:45;29.20;;;21.08;;
22851;SDS011;11592;45.460;9.240;2023-06-14T00:40:12;30.50;;;20.50;;
22851;SDS011;11592;45.460;9.240;2023-06-14T00:42:40;29.63;;;20.52;;
22851;SDS011;11592;45.460;9.240;2023-06-14T00:45:07;28.52;;;19.48;;
22851;SDS011;11592;45.460;9.240;2023-06-14T00:47:35;29.75;;;19.10;;
22851;SDS011;11592;45.460;9.240;2023-06-14T00:50:06;25.60;;;18.23;;
22851;SDS011;11592;45.460;9.240;2023-06-14T00:52:33;28.23;;;18.83;;
22851;SDS011;11592;45.460;9.240;2023-06-14T00:55:01;28.75;;;19.15;;
22851;SDS011;11592;45.460;9.240;2023-06-14T00:57:28;23.88;;;15.90;;
22851;SDS011;11592;45.460;9.240;2023-06-14T00:59:55;28.85;;;19.42;;
22851;SDS011;11592;45.460;9.240;2023-06-14T01:02:22;25.83;;;18.15;;
22851;SDS011;11592;45.460;9.240;2023-06-14T01:04:50;25.65;;;16.45;;
22851;SDS011;11592;45.460;9.240;2023-06-14T01:07:32;21.23;;;15.38;;
22851;SDS011;11592;45.460;9.240;2023-06-14T01:15:39;19.08;;;13.75;;
22851;SDS011;11592;45.460;9.240;2023-06-14T01:18:07;20.75;;;14.40;;
22851;SDS011;11592;45.460;9.240;2023-06-14T01:20:34;18.63;;;14.07;;
22851;SDS011;11592;45.460;9.240;2023-06-14T01:23:05;20.30;;;14.52;;
22851;SDS011;11592;45.460;9.240;2023-06-14T01:25:32;19.98;;;13.50;;
22851;SDS011;11592;45.460;9.240;2023-06-14T01:27:59;19.30;;;13.63;;
22851;SDS011;11592;45.460;9.240;2023-06-14T01:30:30;20.85;;;15.18;;
22851;SDS011;11592;45.460;9.240;2023-06-14T01:32:59;25.35;;;15.18;;
22851;SDS011;11592;45.460;9.240;2023-06-14T01:35:26;19.52;;;14.73;;
22851;SDS011;11592;45.460;9.240;2023-06-14T01:37:53;19.90;;;13.48;;
22851;SDS011;11592;45.460;9.240;2023-06-14T01:40:21;18.55;;;12.98;;
22851;SDS011;11592;45.460;9.240;2023-06-14T01:42:49;16.23;;;11.65;;
22851;SDS011;11592;45.460;9.240;2023-06-14T01:45:17;15.60;;;10.00;;
22851;SDS011;11592;45.460;9.240;2023-06-14T01:47:46;17.42;;;10.15;;
22851;SDS011;11592;45.460;9.240;2023-06-14T01:50:13;14.13;;;9.90;;
22851;SDS011;11592;45.460;9.240;2023-06-14T01:52:41;14.32;;;9.18;;
22851;SDS011;11592;45.460;9.240;2023-06-14T01:55:08;13.20;;;9.48;;
22851;SDS011;11592;45.460;9.240;2023-06-14T01:57:35;12.45;;;8.38;;
22851;SDS011;11592;45.460;9.240;2023-06-14T02:00:03;10.68;;;7.55;;
22851;SDS011;11592;45.460;9.240;2023-06-14T02:02:34;8.95;;;6.38;;
22851;SDS011;11592;45.460;9.240;2023-06-14T02:05:01;9.02;;;6.68;;
22851;SDS011;11592;45.460;9.240;2023-06-14T02:07:28;10.10;;;6.13;;
22851;SDS011;11592;45.460;9.240;2023-06-14T02:09:55;8.77;;;5.95;;
22851;SDS011;11592;45.460;9.240;2023-06-14T02:12:22;7.93;;;6.15;;
22851;SDS011;11592;45.460;9.240;2023-06-14T02:14:48;7.25;;;5.82;;
22851;SDS011;11592;45.460;9.240;2023-06-14T02:17:16;9.30;;;6.68;;
22851;SDS011;11592;45.460;9.240;2023-06-14T02:19:43;9.48;;;6.75;;
22851;SDS011;11592;45.460;9.240;2023-06-14T02:22:10;8.20;;;6.00;;
22851;SDS011;11592;45.460;9.240;2023-06-14T02:24:37;7.03;;;5.20;;
22851;SDS011;11592;45.460;9.240;2023-06-14T02:27:04;6.38;;;5.20;;
22851;SDS011;11592;45.460;9.240;2023-06-14T02:29:31;7.45;;;5.15;;
22851;SDS011;11592;45.460;9.240;2023-06-14T02:31:57;6.60;;;5.30;;
22851;SDS011;11592;45.460;9.240;2023-06-14T02:34:24;5.97;;;4.55;;
22851;SDS011;11592;45.460;9.240;2023-06-14T02:36:51;6.32;;;4.82;;
22851;SDS011;11592;45.460;9.240;2023-06-14T02:39:18;5.82;;;4.43;;
22851;SDS011;11592;45.460;9.240;2023-06-14T02:41:47;5.95;;;4.22;;
22851;SDS011;11592;45.460;9.240;2023-06-14T02:44:14;7.03;;;4.50;;
22851;SDS011;11592;45.460;9.240;2023-06-14T02:46:41;5.20;;;4.22;;
22851;SDS011;11592;45.460;9.240;2023-06-14T02:49:10;5.53;;;4.28;;
22851;SDS011;11592;45.460;9.240;2023-06-14T02:51:37;8.50;;;4.72;;
22851;SDS011;11592;45.460;9.240;2023-06-14T02:54:04;7.53;;;4.72;;
22851;SDS011;11592;45.460;9.240;2023-06-14T02:56:31;6.53;;;4.65;;
22851;SDS011;11592;45.460;9.240;2023-06-14T02:58:58;8.93;;;4.90;;
22851;SDS011;11592;45.460;9.240;2023-06-14T03:01:25;7.25;;;5.13;;
22851;SDS011;11592;45.460;9.240;2023-06-14T03:04:03;10.75;;;5.18;;
22851;SDS011;11592;45.460;9.240;2023-06-14T03:06:30;8.80;;;5.78;;
22851;SDS011;11592;45.460;9.240;2023-06-14T03:08:57;8.43;;;5.18;;
22851;SDS011;11592;45.460;9.240;2023-06-14T03:11:31;8.57;;;5.82;;
22851;SDS011;11592;45.460;9.240;2023-06-14T03:13:58;9.25;;;6.18;;
22851;SDS011;11592;45.460;9.240;2023-06-14T03:16:26;15.15;;;6.10;;
22851;SDS011;11592;45.460;9.240;2023-06-14T03:18:55;9.50;;;6.32;;
22851;SDS011;11592;45.460;9.240;2023-06-14T03:21:22;8.38;;;5.85;;
22851;SDS011;11592;45.460;9.240;2023-06-14T03:23:49;10.23;;;6.47;;
22851;SDS011;11592;45.460;9.240;2023-06-14T03:26:16;10.10;;;6.53;;
22851;SDS011;11592;45.460;9.240;2023-06-14T03:28:46;9.73;;;5.82;;
22851;SDS011;11592;45.460;9.240;2023-06-14T03:31:14;8.30;;;5.40;;
22851;SDS011;11592;45.460;9.240;2023-06-14T03:33:42;8.57;;;5.78;;
22851;SDS011;11592;45.460;9.240;2023-06-14T03:36:09;6.88;;;5.53;;
22851;SDS011;11592;45.460;9.240;2023-06-14T03:38:36;11.07;;;5.65;;
22851;SDS011;11592;45.460;9.240;2023-06-14T03:41:02;9.02;;;5.45;;
22851;SDS011;11592;45.460;9.240;2023-06-14T03:43:29;9.55;;;5.28;;
22851;SDS011;11592;45.460;9.240;2023-06-14T03:45:56;7.55;;;5.07;;
22851;SDS011;11592;45.460;9.240;2023-06-14T03:48:23;8.27;;;5.25;;
22851;SDS011;11592;45.460;9.240;2023-06-14T03:50:50;7.40;;;5.10;;
22851;SDS011;11592;45.460;9.240;2023-06-14T03:53:17;9.38;;;5.18;;
22851;SDS011;11592;45.460;9.240;2023-06-14T03:55:46;9.88;;;5.60;;
22851;SDS011;11592;45.460;9.240;2023-06-14T03:58:18;7.80;;;5.10;;
22851;SDS011;11592;45.460;9.240;2023-06-14T04:00:45;7.32;;;5.43;;
22851;SDS011;11592;45.460;9.240;2023-06-14T04:03:12;10.38;;;5.70;;
22851;SDS011;11592;45.460;9.240;2023-06-14T04:05:42;8.13;;;5.38;;
22851;SDS011;11592;45.460;9.240;2023-06-14T04:08:09;7.20;;;5.38;;
22851;SDS011;11592;45.460;9.240;2023-06-14T04:10:36;8.52;;;5.32;;
22851;SDS011;11592;45.460;9.240;2023-06-14T04:13:03;11.45;;;5.47;;
22851;SDS011;11592;45.460;9.240;2023-06-14T04:15:30;6.82;;;5.15;;
22851;SDS011;11592;45.460;9.240;2023-06-14T04:17:57;10.23;;;5.30;;
22851;SDS011;11592;45.460;9.240;2023-06-14T04:20:24;9.70;;;5.57;;
22851;SDS011;11592;45.460;9.240;2023-06-14T04:22:51;6.95;;;4.93;;
22851;SDS011;11592;45.460;9.240;2023-06-14T04:25:18;8.02;;;5.47;;
22851;SDS011;11592;45.460;9.240;2023-06-14T04:27:49;7.40;;;4.55;;
22851;SDS011;11592;45.460;9.240;2023-06-14T04:30:16;7.68;;;4.63;;
22851;SDS011;11592;45.460;9.240;2023-06-14T04:32:43;7.30;;;5.50;;
22851;SDS011;11592;45.460;9.240;2023-06-14T04:35:12;7.20;;;5.10;;
22851;SDS011;11592;45.460;9.240;2023-06-14T04:37:39;7.53;;;5.28;;
22851;SDS011;11592;45.460;9.240;2023-06-14T04:40:08;9.32;;;5.22;;
22851;SDS011;11592;45.460;9.240;2023-06-14T04:42:38;8.30;;;4.85;;
22851;SDS011;11592;45.460;9.240;2023-06-14T04:45:07;10.07;;;5.78;;
22851;SDS011;11592;45.460;9.240;2023-06-14T04:47:35;7.50;;;5.07;;
22851;SDS011;11592;45.460;9.240;2023-06-14T04:50:04;11.38;;;5.22;;
22851;SDS011;11592;45.460;9.240;2023-06-14T04:52:30;10.90;;;5.20;;
22851;SDS011;11592;45.460;9.240;2023-06-14T04:54:58;10.43;;;5.32;;
22851;SDS011;11592;45.460;9.240;2023-06-14T04:57:25;7.35;;;5.18;;
22851;SDS011;11592;45.460;9.240;2023-06-14T04:59:52;8.10;;;4.97;;
22851;SDS011;11592;45.460;9.240;2023-06-14T05:02:22;9.60;;;4.63;;
22851;SDS011;11592;45.460;9.240;2023-06-14T05:04:50;8.05;;;4.85;;
22851;SDS011;11592;45.460;9.240;2023-06-14T05:07:17;8.93;;;5.10;;
22851;SDS011;11592;45.460;9.240;2023-06-14T05:09:44;7.05;;;4.75;;
22851;SDS011;11592;45.460;9.240;2023-06-14T05:12:12;8.00;;;5.03;;
22851;SDS011;11592;45.460;9.240;2023-06-14T05:14:38;6.32;;;4.55;;
22851;SDS011;11592;45.460;9.240;2023-06-14T05:17:05;5.53;;;3.88;;
22851;SDS011;11592;45.460;9.240;2023-06-14T05:19:32;4.95;;;4.35;;
22851;SDS011;11592;45.460;9.240;2023-06-14T05:21:59;6.03;;;4.22;;
22851;SDS011;11592;45.460;9.240;2023-06-14T05:24:26;5.88;;;4.28;;
22851;SDS011;11592;45.460;9.240;2023-06-14T05:26:55;5.60;;;4.43;;
22851;SDS011;11592;45.460;9.240;2023-06-14T05:29:22;7.00;;;4.30;;
22851;SDS011;11592;45.460;9.240;2023-06-14T05:31:49;6.68;;;4.45;;
22851;SDS011;11592;45.460;9.240;2023-06-14T05:34:16;6.03;;;4.25;;
22851;SDS011;11592;45.460;9.240;2023-06-14T05:36:43;5.70;;;4.07;;
22851;SDS011;11592;45.460;9.240;2023-06-14T05:39:10;8.13;;;4.60;;
22851;SDS011;11592;45.460;9.240;2023-06-14T05:41:37;6.40;;;4.35;;
22851;SDS011;11592;45.460;9.240;2023-06-14T05:44:03;6.03;;;4.35;;
22851;SDS011;11592;45.460;9.240;2023-06-14T05:46:30;5.90;;;4.25;;
22851;SDS011;11592;45.460;9.240;2023-06-14T05:48:57;5.50;;;4.30;;
22851;SDS011;11592;45.460;9.240;2023-06-14T05:51:24;5.20;;;4.18;;
22851;SDS011;11592;45.460;9.240;2023-06-14T05:53:52;7.03;;;5.07;;
22851;SDS011;11592;45.460;9.240;2023-06-14T05:56:19;6.15;;;4.53;;
22851;SDS011;11592;45.460;9.240;2023-06-14T05:58:46;6.03;;;4.60;;
22851;SDS011;11592;45.460;9.240;2023-06-14T06:01:13;7.07;;;4.88;;
22851;SDS011;11592;45.460;9.240;2023-06-14T06:03:40;9.85;;;5.05;;
22851;SDS011;11592;45.460;9.240;2023-06-14T06:06:08;9.27;;;4.97;;
22851;SDS011;11592;45.460;9.240;2023-06-14T06:08:34;8.75;;;5.38;;
22851;SDS011;11592;45.460;9.240;2023-06-14T06:11:01;10.93;;;5.18;;
22851;SDS011;11592;45.460;9.240;2023-06-14T06:13:28;7.28;;;4.70;;
22851;SDS011;11592;45.460;9.240;2023-06-14T06:15:55;7.43;;;5.47;;
22851;SDS011;11592;45.460;9.240;2023-06-14T06:18:22;8.30;;;5.10;;
22851;SDS011;11592;45.460;9.240;2023-06-14T06:20:49;8.73;;;5.20;;
22851;SDS011;11592;45.460;9.240;2023-06-14T06:23:16;8.13;;;5.22;;
22851;SDS011;11592;45.460;9.240;2023-06-14T06:25:43;23.52;;;5.60;;
22851;SDS011;11592;45.460;9.240;2023-06-14T06:28:10;9.77;;;5.45;;
22851;SDS011;11592;45.460;9.240;2023-06-14T06:30:37;10.48;;;5.25;;
22851;SDS011;11592;45.460;9.240;2023-06-14T06:33:04;7.18;;;4.72;;
22851;SDS011;11592;45.460;9.240;2023-06-14T06:35:32;10.38;;;6.13;;
22851;SDS011;11592;45.460;9.240;2023-06-14T06:37:59;7.32;;;4.93;;
22851;SDS011;11592;45.460;9.240;2023-06-14T06:40:27;7.78;;;4.65;;
22851;SDS011;11592;45.460;9.240;2023-06-14T06:42:54;10.30;;;5.28;;
22851;SDS011;11592;45.460;9.240;2023-06-14T06:45:21;6.82;;;5.35;;
22851;SDS011;11592;45.460;9.240;2023-06-14T06:47:51;12.85;;;5.90;;
22851;SDS011;11592;45.460;9.240;2023-06-14T06:50:18;8.82;;;5.32;;
22851;SDS011;11592;45.460;9.240;2023-06-14T06:52:46;9.73;;;5.93;;
22851;SDS011;11592;45.460;9.240;2023-06-14T06:55:13;11.43;;;6.32;;
22851;SDS011;11592;45.460;9.240;2023-06-14T06:57:41;12.93;;;5.65;;
22851;SDS011;11592;45.460;9.240;2023-06-14T07:00:08;8.70;;;5.93;;
22851;SDS011;11592;45.460;9.240;2023-06-14T07:02:36;8.93;;;6.60;;
22851;SDS011;11592;45.460;9.240;2023-06-14T07:05:03;9.32;;;6.20;;
22851;SDS011;11592;45.460;9.240;2023-06-14T07:07:31;11.10;;;6.93;;
22851;SDS011;11592;45.460;9.240;2023-06-14T07:09:58;9.90;;;6.53;;
22851;SDS011;11592;45.460;9.240;2023-06-14T07:12:26;11.55;;;6.45;;
22851;SDS011;11592;45.460;9.240;2023-06-14T07:14:53;9.82;;;7.03;;
22851;SDS011;11592;45.460;9.240;2023-06-14T07:17:20;12.45;;;7.20;;
22851;SDS011;11592;45.460;9.240;2023-06-14T07:19:47;10.23;;;7.03;;
22851;SDS011;11592;45.460;9.240;2023-06-14T07:22:13;10.13;;;7.05;;
22851;SDS011;11592;45.460;9.240;2023-06-14T07:24:40;10.13;;;8.07;;
22851;SDS011;11592;45.460;9.240;2023-06-14T07:27:08;9.20;;;7.15;;
22851;SDS011;11592;45.460;9.240;2023-06-14T07:29:40;15.40;;;11.48;;
22851;SDS011;11592;45.460;9.240;2023-06-14T07:32:07;10.95;;;7.63;;
22851;SDS011;11592;45.460;9.240;2023-06-14T07:34:33;10.85;;;7.47;;
22851;SDS011;11592;45.460;9.240;2023-06-14T07:37:00;11.25;;;7.10;;
22851;SDS011;11592;45.460;9.240;2023-06-14T07:39:27;10.85;;;6.68;;
22851;SDS011;11592;45.460;9.240;2023-06-14T07:41:54;10.02;;;6.13;;
22851;SDS011;11592;45.460;9.240;2023-06-14T07:44:21;10.57;;;6.38;;
22851;SDS011;11592;45.460;9.240;2023-06-14T07:46:47;8.00;;;5.50;;
22851;SDS011;11592;45.460;9.240;2023-06-14T07:49:15;12.70;;;6.22;;
22851;SDS011;11592;45.460;9.240;2023-06-14T07:51:42;9.35;;;6.35;;
22851;SDS011;11592;45.460;9.240;2023-06-14T07:54:11;12.45;;;6.70;;
22851;SDS011;11592;45.460;9.240;2023-06-14T07:56:37;11.95;;;7.68;;
22851;SDS011;11592;45.460;9.240;2023-06-14T07:59:04;13.13;;;7.55;;
22851;SDS011;11592;45.460;9.240;2023-06-14T08:01:32;10.75;;;7.40;;
22851;SDS011;11592;45.460;9.240;2023-06-14T08:03:59;14.50;;;6.20;;
22851;SDS011;11592;45.460;9.240;2023-06-14T08:06:26;11.27;;;6.53;;
22851;SDS011;11592;45.460;9.240;2023-06-14T08:08:53;10.43;;;6.75;;
22851;SDS011;11592;45.460;9.240;2023-06-14T08:11:20;11.40;;;6.80;;
22851;SDS011;11592;45.460;9.240;2023-06-14T08:13:47;11.50;;;6.57;;
22851;SDS011;11592;45.460;9.240;2023-06-14T08:16:14;10.60;;;6.13;;
22851;SDS011;11592;45.460;9.240;2023-06-14T08:18:40;9.60;;;7.28;;
22851;SDS011;11592;45.460;9.240;2023-06-14T08:21:07;12.65;;;6.85;;
22851;SDS011;11592;45.460;9.240;2023-06-14T08:23:34;10.25;;;6.20;;
22851;SDS011;11592;45.460;9.240;2023-06-14T08:26:02;13.23;;;6.47;;
22851;SDS011;11592;45.460;9.240;2023-06-14T08:28:30;15.48;;;7.60;;
22851;SDS011;11592;45.460;9.240;2023-06-14T08:30:57;8.05;;;6.03;;
22851;SDS011;11592;45.460;9.240;2023-06-14T08:33:23;9.38;;;6.35;;
22851;SDS011;11592;45.460;9.240;2023-06-14T08:35:51;10.90;;;6.60;;
22851;SDS011;11592;45.460;9.240;2023-06-14T08:38:17;8.07;;;5.80;;
22851;SDS011;11592;45.460;9.240;2023-06-14T08:40:45;7.45;;;5.20;;
22851;SDS011;11592;45.460;9.240;2023-06-14T08:43:16;12.40;;;4.93;;
22851;SDS011;11592;45.460;9.240;2023-06-14T08:45:43;8.15;;;5.15;;
22851;SDS011;11592;45.460;9.240;2023-06-14T08:48:12;9.93;;;6.63;;
22851;SDS011;11592;45.460;9.240;2023-06-14T08:50:43;10.05;;;5.93;;
22851;SDS011;11592;45.460;9.240;2023-06-14T08:53:12;11.73;;;7.28;;
22851;SDS011;11592;45.460;9.240;2023-06-14T08:55:42;13.40;;;6.60;;
22851;SDS011;11592;45.460;9.240;2023-06-14T08:58:09;10.10;;;6.85;;
22851;SDS011;11592;45.460;9.240;2023-06-14T09:00:40;12.45;;;6.82;;
22851;SDS011;11592;45.460;9.240;2023-06-14T09:03:09;11.27;;;6.80;;
22851;SDS011;11592;45.460;9.240;2023-06-14T09:05:40;11.02;;;6.93;;
22851;SDS011;11592;45.460;9.240;2023-06-14T09:08:06;10.93;;;6.85;;
22851;SDS011;11592;45.460;9.240;2023-06-14T09:10:34;14.50;;;7.43;;
22851;SDS011;11592;45.460;9.240;2023-06-14T09:13:04;15.15;;;8.20;;
22851;SDS011;11592;45.460;9.240;2023-06-14T09:15:31;14.02;;;7.32;;
22851;SDS011;11592;45.460;9.240;2023-06-14T09:18:00;12.13;;;6.90;;
22851;SDS011;11592;45.460;9.240;2023-06-14T09:20:29;11.18;;;7.97;;
22851;SDS011;11592;45.460;9.240;2023-06-14T09:22:57;16.63;;;8.57;;
22851;SDS011;11592;45.460;9.240;2023-06-14T09:25:24;13.55;;;8.32;;
22851;SDS011;11592;45.460;9.240;2023-06-14T09:28:06;13.07;;;7.70;;
22851;SDS011;11592;45.460;9.240;2023-06-14T09:30:35;13.18;;;8.77;;
22851;SDS011;11592;45.460;9.240;2023-06-14T09:33:03;13.48;;;7.55;;
22851;SDS011;11592;45.460;9.240;2023-06-14T09:35:31;13.20;;;7.53;;
22851;SDS011;11592;45.460;9.240;2023-06-14T09:37:58;10.50;;;6.82;;
22851;SDS011;11592;45.460;9.240;2023-06-14T09:40:26;9.30;;;6.30;;
22851;SDS011;11592;45.460;9.240;2023-06-14T09:42:53;10.93;;;7.25;;
22851;SDS011;11592;45.460;9.240;2023-06-14T09:45:23;10.65;;;7.03;;
22851;SDS011;11592;45.460;9.240;2023-06-14T09:47:54;13.68;;;8.52;;
22851;SDS011;11592;45.460;9.240;2023-06-14T09:50:33;14.73;;;7.75;;
22851;SDS011;11592;45.460;9.240;2023-06-14T09:53:07;13.27;;;7.35;;
22851;SDS011;11592;45.460;9.240;2023-06-14T09:55:37;9.68;;;6.10;;
22851;SDS011;11592;45.460;9.240;2023-06-14T09:58:06;10.80;;;7.13;;
22851;SDS011;11592;45.460;9.240;2023-06-14T10:00:36;9.85;;;6.60;;
22851;SDS011;11592;45.460;9.240;2023-06-14T10:03:14;9.20;;;7.10;;
22851;SDS011;11592;45.460;9.240;2023-06-14T10:05:47;10.60;;;7.95;;
22851;SDS011;11592;45.460;9.240;2023-06-14T10:08:18;11.40;;;7.88;;
22851;SDS011;11592;45.460;9.240;2023-06-14T10:10:50;10.32;;;7.20;;
22851;SDS011;11592;45.460;9.240;2023-06-14T10:13:17;12.40;;;7.57;;
22851;SDS011;11592;45.460;9.240;2023-06-14T10:18:21;11.57;;;7.60;;
22851;SDS011;11592;45.460;9.240;2023-06-14T10:21:02;12.93;;;7.85;;
22851;SDS011;11592;45.460;9.240;2023-06-14T10:23:32;7.45;;;6.60;;
22851;SDS011;11592;45.460;9.240;2023-06-14T10:26:01;10.07;;;7.13;;
22851;SDS011;11592;45.460;9.240;2023-06-14T10:28:28;8.95;;;6.80;;
22851;SDS011;11592;45.460;9.240;2023-06-14T10:33:32;11.95;;;7.25;;
22851;SDS011;11592;45.460;9.240;2023-06-14T10:39:06;14.93;;;9.43;;
22851;SDS011;11592;45.460;9.240;2023-06-14T10:41:36;11.48;;;8.68;;
22851;SDS011;11592;45.460;9.240;2023-06-14T10:46:40;14.85;;;9.15;;
22851;SDS011;11592;45.460;9.240;2023-06-14T10:49:12;20.20;;;10.18;;
22851;SDS011;11592;45.460;9.240;2023-06-14T10:51:45;11.57;;;8.32;;
22851;SDS011;11592;45.460;9.240;2023-06-14T10:54:16;11.98;;;8.95;;
22851;SDS011;11592;45.460;9.240;2023-06-14T10:56:50;11.32;;;9.27;;
22851;SDS011;11592;45.460;9.240;2023-06-14T11:04:50;9.80;;;7.07;;
22851;SDS011;11592;45.460;9.240;2023-06-14T11:12:29;8.85;;;5.50;;
22851;SDS011;11592;45.460;9.240;2023-06-14T11:14:59;6.90;;;4.05;;
22851;SDS011;11592;45.460;9.240;2023-06-14T11:17:26;4.55;;;3.75;;
22851;SDS011;11592;45.460;9.240;2023-06-14T11:20:09;6.93;;;4.40;;
22851;SDS011;11592;45.460;9.240;2023-06-14T11:22:43;6.38;;;3.58;;
22851;SDS011;11592;45.460;9.240;2023-06-14T11:25:11;10.63;;;6.15;;
22851;SDS011;11592;45.460;9.240;2023-06-14T11:27:38;12.13;;;8.85;;
22851;SDS011;11592;45.460;9.240;2023-06-14T11:30:07;8.63;;;6.78;;
22851;SDS011;11592;45.460;9.240;2023-06-14T11:32:34;9.38;;;5.70;;
22851;SDS011;11592;45.460;9.240;2023-06-14T11:35:02;8.02;;;5.22;;
22851;SDS011;11592;45.460;9.240;2023-06-14T11:37:31;7.72;;;4.03;;
22851;SDS011;11592;45.460;9.240;2023-06-14T11:40:01;7.35;;;4.30;;
22851;SDS011;11592;45.460;9.240;2023-06-14T11:42:31;6.10;;;4.30;;
22851;SDS011;11592;45.460;9.240;2023-06-14T11:44:58;7.30;;;3.67;;
22851;SDS011;11592;45.460;9.240;2023-06-14T11:47:35;6.07;;;4.45;;
22851;SDS011;11592;45.460;9.240;2023-06-14T11:50:03;11.00;;;6.00;;
22851;SDS011;11592;45.460;9.240;2023-06-14T11:52:31;7.25;;;5.50;;
22851;SDS011;11592;45.460;9.240;2023-06-14T11:54:58;8.02;;;5.05;;
22851;SDS011;11592;45.460;9.240;2023-06-14T11:57:25;5.95;;;4.60;;
22851;SDS011;11592;45.460;9.240;2023-06-14T11:59:54;5.57;;;4.47;;
22851;SDS011;11592;45.460;9.240;2023-06-14T12:02:22;9.55;;;4.97;;
22851;SDS011;11592;45.460;9.240;2023-06-14T12:04:50;6.97;;;5.00;;
22851;SDS011;11592;45.460;9.240;2023-06-14T12:07:17;8.88;;;6.05;;
22851;SDS011;11592;45.460;9.240;2023-06-14T12:12:25;10.57;;;6.28;;
22851;SDS011;11592;45.460;9.240;2023-06-14T12:14:52;11.32;;;4.68;;
22851;SDS011;11592;45.460;9.240;2023-06-14T12:17:22;7.78;;;6.20;;
22851;SDS011;11592;45.460;9.240;2023-06-14T12:19:49;7.25;;;5.38;;
22851;SDS011;11592;45.460;9.240;2023-06-14T12:22:16;15.55;;;8.85;;
22851;SDS011;11592;45.460;9.240;2023-06-14T12:24:44;14.18;;;9.65;;
22851;SDS011;11592;45.460;9.240;2023-06-14T12:27:11;10.55;;;7.90;;
22851;SDS011;11592;45.460;9.240;2023-06-14T12:29:41;7.78;;;4.47;;
22851;SDS011;11592;45.460;9.240;2023-06-14T12:32:11;6.65;;;5.20;;
22851;SDS011;11592;45.460;9.240;2023-06-14T12:34:38;8.73;;;6.03;;
22851;SDS011;11592;45.460;9.240;2023-06-14T12:37:05;7.97;;;7.07;;
22851;SDS011;11592;45.460;9.240;2023-06-14T12:39:32;8.63;;;6.18;;
22851;SDS011;11592;45.460;9.240;2023-06-14T12:41:59;8.38;;;5.47;;
22851;SDS011;11592;45.460;9.240;2023-06-14T12:44:26;7.97;;;5.78;;
22851;SDS011;11592;45.460;9.240;2023-06-14T12:46:53;8.05;;;7.00;;
22851;SDS011;11592;45.460;9.240;2023-06-14T12:49:21;7.50;;;4.80;;
22851;SDS011;11592;45.460;9.240;2023-06-14T12:51:48;8.07;;;5.32;;
22851;SDS011;11592;45.460;9.240;2023-06-14T12:54:15;8.07;;;4.28;;
22851;SDS011;11592;45.460;9.240;2023-06-14T12:56:53;6.22;;;4.25;;
22851;SDS011;11592;45.460;9.240;2023-06-14T12:59:21;4.95;;;3.55;;
22851;SDS011;11592;45.460;9.240;2023-06-14T13:01:48;6.57;;;3.70;;
22851;SDS011;11592;45.460;9.240;2023-06-14T13:04:16;11.20;;;4.75;;
22851;SDS011;11592;45.460;9.240;2023-06-14T13:06:43;6.13;;;4.30;;
22851;SDS011;11592;45.460;9.240;2023-06-14T13:09:10;4.20;;;3.05;;
22851;SDS011;11592;45.460;9.240;2023-06-14T13:11:37;5.30;;;4.40;;
22851;SDS011;11592;45.460;9.240;2023-06-14T13:14:04;6.30;;;4.53;;
22851;SDS011;11592;45.460;9.240;2023-06-14T13:16:50;8.63;;;6.03;;
22851;SDS011;11592;45.460;9.240;2023-06-14T13:19:17;8.50;;;5.35;;
22851;SDS011;11592;45.460;9.240;2023-06-14T13:21:44;6.55;;;4.93;;
22851;SDS011;11592;45.460;9.240;2023-06-14T13:24:11;6.43;;;4.53;;
22851;SDS011;11592;45.460;9.240;2023-06-14T13:26:38;6.38;;;5.53;;
22851;SDS011;11592;45.460;9.240;2023-06-14T13:29:05;7.68;;;3.83;;
22851;SDS011;11592;45.460;9.240;2023-06-14T13:31:32;5.75;;;3.75;;
22851;SDS011;11592;45.460;9.240;2023-06-14T13:33:59;7.43;;;5.07;;
22851;SDS011;11592;45.460;9.240;2023-06-14T13:36:26;6.18;;;4.22;;
22851;SDS011;11592;45.460;9.240;2023-06-14T13:38:53;7.45;;;3.90;;
22851;SDS011;11592;45.460;9.240;2023-06-14T13:41:21;6.18;;;3.95;;
22851;SDS011;11592;45.460;9.240;2023-06-14T13:43:48;8.43;;;4.18;;
22851;SDS011;11592;45.460;9.240;2023-06-14T13:46:14;9.73;;;5.55;;
22851;SDS011;11592;45.460;9.240;2023-06-14T13:48:41;5.30;;;3.33;;
22851;SDS011;11592;45.460;9.240;2023-06-14T13:51:08;6.72;;;4.32;;
22851;SDS011;11592;45.460;9.240;2023-06-14T13:53:35;5.00;;;3.42;;
22851;SDS011;11592;45.460;9.240;2023-06-14T13:56:02;6.25;;;3.88;;
22851;SDS011;11592;45.460;9.240;2023-06-14T13:58:28;6.65;;;4.03;;
22851;SDS011;11592;45.460;9.240;2023-06-14T14:00:55;4.93;;;3.25;;
22851;SDS011;11592;45.460;9.240;2023-06-14T14:03:23;4.78;;;3.38;;
22851;SDS011;11592;45.460;9.240;2023-06-14T14:05:50;4.55;;;3.30;;
22851;SDS011;11592;45.460;9.240;2023-06-14T14:08:17;6.20;;;3.95;;
22851;SDS011;11592;45.460;9.240;2023-06-14T14:10:44;4.18;;;3.33;;
22851;SDS011;11592;45.460;9.240;2023-06-14T14:13:11;6.65;;;4.55;;
22851;SDS011;11592;45.460;9.240;2023-06-14T14:15:38;4.72;;;3.50;;
22851;SDS011;11592;45.460;9.240;2023-06-14T14:18:05;5.30;;;3.70;;
22851;SDS011;11592;45.460;9.240;2023-06-14T14:20:33;5.10;;;3.03;;
22851;SDS011;11592;45.460;9.240;2023-06-14T14:23:00;6.45;;;3.70;;
22851;SDS011;11592;45.460;9.240;2023-06-14T14:25:27;3.83;;;3.10;;
22851;SDS011;11592;45.460;9.240;2023-06-14T14:27:54;3.45;;;3.10;;
22851;SDS011;11592;45.460;9.240;2023-06-14T14:30:21;7.57;;;3.38;;
22851;SDS011;11592;45.460;9.240;2023-06-14T14:32:49;7.03;;;3.05;;
22851;SDS011;11592;45.460;9.240;2023-06-14T14:35:18;6.57;;;3.25;;
22851;SDS011;11592;45.460;9.240;2023-06-14T14:37:44;6.32;;;2.85;;
22851;SDS011;11592;45.460;9.240;2023-06-14T14:40:11;3.40;;;2.55;;
22851;SDS011;11592;45.460;9.240;2023-06-14T14:42:39;5.82;;;3.70;;
22851;SDS011;11592;45.460;9.240;2023-06-14T14:45:06;5.13;;;3.78;;
22851;SDS011;11592;45.460;9.240;2023-06-14T14:47:33;6.70;;;3.60;;
22851;SDS011;11592;45.460;9.240;2023-06-14T14:50:00;4.53;;;3.30;;
22851;SDS011;11592;45.460;9.240;2023-06-14T14:52:27;3.90;;;3.50;;
22851;SDS011;11592;45.460;9.240;2023-06-14T14:54:54;6.22;;;3.80;;
22851;SDS011;11592;45.460;9.240;2023-06-14T14:57:21;6.28;;;4.75;;
22851;SDS011;11592;45.460;9.240;2023-06-14T14:59:48;6.90;;;3.95;;
22851;SDS011;11592;45.460;9.240;2023-06-14T15:02:14;6.15;;;3.88;;
22851;SDS011;11592;45.460;9.240;2023-06-14T15:04:41;6.15;;;3.75;;
22851;SDS011;11592;45.460;9.240;2023-06-14T15:07:08;6.03;;;3.40;;
22851;SDS011;11592;45.460;9.240;2023-06-14T15:09:35;4.47;;;3.35;;
22851;SDS011;11592;45.460;9.240;2023-06-14T15:12:03;6.35;;;4.43;;
22851;SDS011;11592;45.460;9.240;2023-06-14T15:14:30;6.45;;;4.50;;